sensor_id;sensor_type;location;lat;lon;timestamp;temperature;humidity
3660;DHT22;1846;51.482;7.224;2023-04-01T00:01:10;10.30;99.90
3660;DHT22;1846;51.482;7.224;2023-04-01T00:03:39;10.30;1.00
3660;DHT22;1846;51.482;7.224;2023-04-01T00:06:06;10.30;99.90
3660;DHT22;1846;51.482;7.224;2023-04-01T00:08:33;10.30;1.00
3660;DHT22;1846;51.482;7.224;2023-04-01T00:11:01;10.40;99.90
3660;DHT22;1846;51.482;7.224;2023-04-01T00:13:32;10.30;1.00
3660;DHT22;1846;51.482;7.224;2023-04-01T00:15:59;10.30;1.00
3660;DHT22;1846;51.482;7.224;2023-04-01T00:18:27;10.30;1.00
3660;DHT22;1846;51.482;7.224;2023-04-01T00:20:56;10.30;99.90
3660;DHT22;1846;51.482;7.224;2023-04-01T00:23:23;10.30;99.90
3660;DHT22;1846;51.482;7.224;2023-04-01T00:25:50;10.30;99.90
3660;DHT22;1846;51.482;7.224;2023-04-01T00:28:19;10.40;1.00
3660;DHT22;1846;51.482;7.224;2023-04-01T00:30:47;10.40;1.00
3660;DHT22;1846;51.482;7.224;2023-04-01T00:33:14;10.40;99.90
3660;DHT22;1846;51.482;7.224;2023-04-01T00:35:42;10.30;1.00
3660;DHT22;1846;51.482;7.224;2023-04-01T00:38:08;10.40;99.90
3660;DHT22;1846;51.482;7.224;2023-04-01T00:40:38;10.30;99.90
3660;DHT22;1846;51.482;7.224;2023-04-01T00:43:10;10.20;99.90
3660;DHT22;1846;51.482;7.224;2023-04-01T00:45:41;10.40;1.00
3660;DHT22;1846;51.482;7.224;2023-04-01T00:48:11;10.40;99.90
3660;DHT22;1846;51.482;7.224;2023-04-01T00:50:44;10.40;1.00
3660;DHT22;1846;51.482;7.224;2023-04-01T00:53:14;10.30;1.00
3660;DHT22;1846;51.482;7.224;2023-04-01T00:55:50;10.30;1.00
3660;DHT22;1846;51.482;7.224;2023-04-01T00:58:21;10.40;1.00
3660;DHT22;1846;51.482;7.224;2023-04-01T01:00:50;10.20;1.00
3660;DHT22;1846;51.482;7.224;2023-04-01T01:03:18;10.20;1.00
3660;DHT22;1846;51.482;7.224;2023-04-01T01:06:08;10.30;1.00
3660;DHT22;1846;51.482;7.224;2023-04-01T01:08:53;10.30;1.00
3660;DHT22;1846;51.482;7.224;2023-04-01T01:11:29;10.30;1.00
3660;DHT22;1846;51.482;7.224;2023-04-01T01:14:02;10.30;1.00
3660;DHT22;1846;51.482;7.224;2023-04-01T01:16:42;10.10;1.00
3660;DHT22;1846;51.482;7.224;2023-04-01T01:19:19;10.20;46.70
3660;DHT22;1846;51.482;7.224;2023-04-01T01:22:17;10.20;24.20
3660;DHT22;1846;51.482;7.224;2023-04-01T01:24:55;10.10;66.90
3660;DHT22;1846;51.482;7.224;2023-04-01T01:27:27;10.20;97.40
3660;DHT22;1846;51.482;7.224;2023-04-01T01:30:16;10.10;99.90
3660;DHT22;1846;51.482;7.224;2023-04-01T01:33:05;10.10;99.90
3660;DHT22;1846;51.482;7.224;2023-04-01T01:35:37;10.00;99.90
3660;DHT22;1846;51.482;7.224;2023-04-01T01:38:07;10.20;99.90
3660;DHT22;1846;51.482;7.224;2023-04-01T01:40:36;10.10;99.90
3660;DHT22;1846;51.482;7.224;2023-04-01T01:43:08;10.20;99.90
3660;DHT22;1846;51.482;7.224;2023-04-01T01:45:39;10.10;99.90
3660;DHT22;1846;51.482;7.224;2023-04-01T01:48:08;10.20;99.90
3660;DHT22;1846;51.482;7.224;2023-04-01T01:50:37;10.30;99.90
3660;DHT22;1846;51.482;7.224;2023-04-01T01:53:07;10.10;99.90
3660;DHT22;1846;51.482;7.224;2023-04-01T01:55:36;10.00;99.90
3660;DHT22;1846;51.482;7.224;2023-04-01T01:58:08;10.10;99.90
3660;DHT22;1846;51.482;7.224;2023-04-01T02:00:36;10.00;99.90
3660;DHT22;1846;51.482;7.224;2023-04-01T02:03:04;10.20;99.90
3660;DHT22;1846;51.482;7.224;2023-04-01T02:05:33;10.00;99.90
3660;DHT22;1846;51.482;7.224;2023-04-01T02:08:06;10.00;99.90
3660;DHT22;1846;51.482;7.224;2023-04-01T02:10:36;10.00;99.90
3660;DHT22;1846;51.482;7.224;2023-04-01T02:13:09;10.00;99.90
3660;DHT22;1846;51.482;7.224;2023-04-01T02:15:42;10.00;99.90
3660;DHT22;1846;51.482;7.224;2023-04-01T02:18:14;10.10;99.90
3660;DHT22;1846;51.482;7.224;2023-04-01T02:20:42;10.10;99.90
3660;DHT22;1846;51.482;7.224;2023-04-01T02:23:12;10.20;99.90
3660;DHT22;1846;51.482;7.224;2023-04-01T02:25:41;10.20;80.60
3660;DHT22;1846;51.482;7.224;2023-04-01T02:28:10;10.10;72.90
3660;DHT22;1846;51.482;7.224;2023-04-01T02:30:38;10.10;54.40
3660;DHT22;1846;51.482;7.224;2023-04-01T02:33:07;10.10;44.20
3660;DHT22;1846;51.482;7.224;2023-04-01T02:35:36;10.00;57.40
3660;DHT22;1846;51.482;7.224;2023-04-01T02:38:04;9.90;85.60
3660;DHT22;1846;51.482;7.224;2023-04-01T02:40:43;10.00;99.90
3660;DHT22;1846;51.482;7.224;2023-04-01T02:43:10;10.00;99.90
3660;DHT22;1846;51.482;7.224;2023-04-01T02:45:37;10.00;99.90
3660;DHT22;1846;51.482;7.224;2023-04-01T02:48:05;9.90;99.90
3660;DHT22;1846;51.482;7.224;2023-04-01T02:50:32;9.90;99.90
3660;DHT22;1846;51.482;7.224;2023-04-01T02:53:00;10.10;99.90
3660;DHT22;1846;51.482;7.224;2023-04-01T02:55:28;10.00;99.90
3660;DHT22;1846;51.482;7.224;2023-04-01T02:57:57;10.10;99.90
3660;DHT22;1846;51.482;7.224;2023-04-01T03:00:24;10.10;99.90
3660;DHT22;1846;51.482;7.224;2023-04-01T03:02:51;10.00;99.90
3660;DHT22;1846;51.482;7.224;2023-04-01T03:05:18;10.00;99.90
3660;DHT22;1846;51.482;7.224;2023-04-01T03:07:45;10.00;99.90
3660;DHT22;1846;51.482;7.224;2023-04-01T03:10:12;10.00;99.90
3660;DHT22;1846;51.482;7.224;2023-04-01T03:12:39;10.00;99.90
3660;DHT22;1846;51.482;7.224;2023-04-01T03:15:10;10.10;99.90
3660;DHT22;1846;51.482;7.224;2023-04-01T03:17:37;10.00;99.90
3660;DHT22;1846;51.482;7.224;2023-04-01T03:20:06;10.00;99.90
3660;DHT22;1846;51.482;7.224;2023-04-01T03:22:33;10.00;99.90
3660;DHT22;1846;51.482;7.224;2023-04-01T03:25:01;10.00;99.90
3660;DHT22;1846;51.482;7.224;2023-04-01T03:27:28;9.90;99.90
3660;DHT22;1846;51.482;7.224;2023-04-01T03:29:54;9.90;99.90
3660;DHT22;1846;51.482;7.224;2023-04-01T03:32:23;10.00;99.90
3660;DHT22;1846;51.482;7.224;2023-04-01T03:34:50;9.90;99.90
3660;DHT22;1846;51.482;7.224;2023-04-01T03:37:17;9.90;99.90
3660;DHT22;1846;51.482;7.224;2023-04-01T03:39:43;9.90;99.90
3660;DHT22;1846;51.482;7.224;2023-04-01T03:42:11;9.90;99.90
3660;DHT22;1846;51.482;7.224;2023-04-01T03:44:37;9.90;99.90
3660;DHT22;1846;51.482;7.224;2023-04-01T03:47:04;9.90;99.90
3660;DHT22;1846;51.482;7.224;2023-04-01T03:49:33;9.90;99.90
3660;DHT22;1846;51.482;7.224;2023-04-01T03:52:00;9.90;99.90
3660;DHT22;1846;51.482;7.224;2023-04-01T03:54:27;9.80;99.90
3660;DHT22;1846;51.482;7.224;2023-04-01T03:56:54;9.90;99.90
3660;DHT22;1846;51.482;7.224;2023-04-01T03:59:23;10.00;99.90
3660;DHT22;1846;51.482;7.224;2023-04-01T04:01:50;10.00;99.90
3660;DHT22;1846;51.482;7.224;2023-04-01T04:04:17;10.00;99.90
3660;DHT22;1846;51.482;7.224;2023-04-01T04:06:45;9.90;99.90
3660;DHT22;1846;51.482;7.224;2023-04-01T04:09:12;10.10;99.90
3660;DHT22;1846;51.482;7.224;2023-04-01T04:11:39;9.90;99.90
3660;DHT22;1846;51.482;7.224;2023-04-01T04:14:06;9.90;99.90
3660;DHT22;1846;51.482;7.224;2023-04-01T04:16:35;9.90;99.90
3660;DHT22;1846;51.482;7.224;2023-04-01T04:19:03;9.90;99.90
3660;DHT22;1846;51.482;7.224;2023-04-01T04:21:30;9.80;99.90
3660;DHT22;1846;51.482;7.224;2023-04-01T04:23:58;9.70;99.90
3660;DHT22;1846;51.482;7.224;2023-04-01T04:26:25;9.70;99.90
3660;DHT22;1846;51.482;7.224;2023-04-01T04:28:53;9.80;99.90
3660;DHT22;1846;51.482;7.224;2023-04-01T04:31:22;9.80;99.90
3660;DHT22;1846;51.482;7.224;2023-04-01T04:33:49;9.80;99.90
3660;DHT22;1846;51.482;7.224;2023-04-01T04:36:17;9.90;99.90
3660;DHT22;1846;51.482;7.224;2023-04-01T04:38:44;9.90;99.90
3660;DHT22;1846;51.482;7.224;2023-04-01T04:41:12;10.00;99.90
3660;DHT22;1846;51.482;7.224;2023-04-01T04:43:40;9.90;99.90
3660;DHT22;1846;51.482;7.224;2023-04-01T04:46:08;10.00;99.90
3660;DHT22;1846;51.482;7.224;2023-04-01T04:48:37;10.00;99.90
3660;DHT22;1846;51.482;7.224;2023-04-01T04:51:04;10.00;99.90
3660;DHT22;1846;51.482;7.224;2023-04-01T04:53:31;10.00;99.90
3660;DHT22;1846;51.482;7.224;2023-04-01T04:55:58;10.00;99.90
3660;DHT22;1846;51.482;7.224;2023-04-01T04:58:26;10.00;99.90
3660;DHT22;1846;51.482;7.224;2023-04-01T05:00:53;10.00;99.90
3660;DHT22;1846;51.482;7.224;2023-04-01T05:03:20;10.00;99.90
3660;DHT22;1846;51.482;7.224;2023-04-01T05:05:52;9.90;99.90
3660;DHT22;1846;51.482;7.224;2023-04-01T05:08:19;9.90;99.90
3660;DHT22;1846;51.482;7.224;2023-04-01T05:10:46;9.90;99.90
3660;DHT22;1846;51.482;7.224;2023-04-01T05:13:13;10.00;99.90
3660;DHT22;1846;51.482;7.224;2023-04-01T05:15:41;9.90;99.90
3660;DHT22;1846;51.482;7.224;2023-04-01T05:18:08;10.00;99.90
3660;DHT22;1846;51.482;7.224;2023-04-01T05:20:35;9.90;99.90
3660;DHT22;1846;51.482;7.224;2023-04-01T05:23:02;9.90;99.90
3660;DHT22;1846;51.482;7.224;2023-04-01T05:25:29;10.00;99.90
3660;DHT22;1846;51.482;7.224;2023-04-01T05:27:56;9.90;99.90
3660;DHT22;1846;51.482;7.224;2023-04-01T05:30:23;10.00;99.90
3660;DHT22;1846;51.482;7.224;2023-04-01T05:32:51;10.00;99.90
3660;DHT22;1846;51.482;7.224;2023-04-01T05:35:18;9.90;99.90
3660;DHT22;1846;51.482;7.224;2023-04-01T05:37:45;9.90;99.90
3660;DHT22;1846;51.482;7.224;2023-04-01T05:40:12;10.00;99.90
3660;DHT22;1846;51.482;7.224;2023-04-01T05:42:38;10.10;99.90
3660;DHT22;1846;51.482;7.224;2023-04-01T05:45:06;10.00;99.90
3660;DHT22;1846;51.482;7.224;2023-04-01T05:47:34;10.10;99.90
3660;DHT22;1846;51.482;7.224;2023-04-01T05:50:02;10.00;99.90
3660;DHT22;1846;51.482;7.224;2023-04-01T05:52:29;10.00;99.90
3660;DHT22;1846;51.482;7.224;2023-04-01T05:54:56;10.00;99.90
3660;DHT22;1846;51.482;7.224;2023-04-01T05:57:24;10.10;99.90
3660;DHT22;1846;51.482;7.224;2023-04-01T05:59:51;10.10;99.90
3660;DHT22;1846;51.482;7.224;2023-04-01T06:02:18;10.10;99.90
3660;DHT22;1846;51.482;7.224;2023-04-01T06:04:45;10.00;99.90
3660;DHT22;1846;51.482;7.224;2023-04-01T06:07:14;10.00;99.90
3660;DHT22;1846;51.482;7.224;2023-04-01T06:09:41;10.00;99.90
3660;DHT22;1846;51.482;7.224;2023-04-01T06:12:29;10.10;99.90
3660;DHT22;1846;51.482;7.224;2023-04-01T06:15:10;10.10;99.90
3660;DHT22;1846;51.482;7.224;2023-04-01T06:17:52;10.00;99.90
3660;DHT22;1846;51.482;7.224;2023-04-01T06:20:26;10.10;99.90
3660;DHT22;1846;51.482;7.224;2023-04-01T06:23:15;10.00;99.90
3660;DHT22;1846;51.482;7.224;2023-04-01T06:25:54;10.10;99.90
3660;DHT22;1846;51.482;7.224;2023-04-01T06:29:06;10.00;99.90
3660;DHT22;1846;51.482;7.224;2023-04-01T06:32:09;10.00;99.90
3660;DHT22;1846;51.482;7.224;2023-04-01T06:34:59;10.00;99.90
3660;DHT22;1846;51.482;7.224;2023-04-01T06:37:49;10.00;99.90
3660;DHT22;1846;51.482;7.224;2023-04-01T06:40:41;10.10;99.90
3660;DHT22;1846;51.482;7.224;2023-04-01T06:43:16;10.10;99.90
3660;DHT22;1846;51.482;7.224;2023-04-01T06:45:52;10.10;99.90
3660;DHT22;1846;51.482;7.224;2023-04-01T06:48:38;10.00;99.90
3660;DHT22;1846;51.482;7.224;2023-04-01T06:51:16;10.10;99.90
3660;DHT22;1846;51.482;7.224;2023-04-01T06:53:50;10.00;99.90
3660;DHT22;1846;51.482;7.224;2023-04-01T06:56:25;10.00;99.90
3660;DHT22;1846;51.482;7.224;2023-04-01T06:58:55;10.00;99.90
3660;DHT22;1846;51.482;7.224;2023-04-01T07:01:28;10.00;99.90
3660;DHT22;1846;51.482;7.224;2023-04-01T07:03:58;10.10;99.90
3660;DHT22;1846;51.482;7.224;2023-04-01T07:06:29;10.20;99.90
3660;DHT22;1846;51.482;7.224;2023-04-01T07:08:59;10.10;99.90
3660;DHT22;1846;51.482;7.224;2023-04-01T07:11:32;10.10;99.90
3660;DHT22;1846;51.482;7.224;2023-04-01T07:14:04;10.10;99.90
3660;DHT22;1846;51.482;7.224;2023-04-01T07:16:37;10.10;99.90
3660;DHT22;1846;51.482;7.224;2023-04-01T07:19:09;10.00;99.90
3660;DHT22;1846;51.482;7.224;2023-04-01T07:21:41;10.00;99.90
3660;DHT22;1846;51.482;7.224;2023-04-01T07:24:15;10.10;99.90
3660;DHT22;1846;51.482;7.224;2023-04-01T07:26:45;10.10;99.90
3660;DHT22;1846;51.482;7.224;2023-04-01T07:29:13;10.10;99.90
3660;DHT22;1846;51.482;7.224;2023-04-01T07:31:50;10.30;99.90
3660;DHT22;1846;51.482;7.224;2023-04-01T07:34:22;10.30;99.90
3660;DHT22;1846;51.482;7.224;2023-04-01T07:36:54;10.20;99.90
3660;DHT22;1846;51.482;7.224;2023-04-01T07:39:35;10.20;99.90
3660;DHT22;1846;51.482;7.224;2023-04-01T07:42:11;10.20;99.90
3660;DHT22;1846;51.482;7.224;2023-04-01T07:44:48;10.30;99.90
3660;DHT22;1846;51.482;7.224;2023-04-01T07:47:28;10.30;99.90
3660;DHT22;1846;51.482;7.224;2023-04-01T07:50:06;10.20;99.90
3660;DHT22;1846;51.482;7.224;2023-04-01T07:52:39;10.30;99.90
3660;DHT22;1846;51.482;7.224;2023-04-01T07:55:14;10.30;99.90
3660;DHT22;1846;51.482;7.224;2023-04-01T07:57:50;10.20;99.90
3660;DHT22;1846;51.482;7.224;2023-04-01T08:00:22;10.20;99.90
3660;DHT22;1846;51.482;7.224;2023-04-01T08:03:02;10.20;99.90
3660;DHT22;1846;51.482;7.224;2023-04-01T08:05:40;10.10;99.90
3660;DHT22;1846;51.482;7.224;2023-04-01T08:08:17;10.20;99.90
3660;DHT22;1846;51.482;7.224;2023-04-01T08:10:48;10.20;99.90
3660;DHT22;1846;51.482;7.224;2023-04-01T08:13:24;10.30;99.90
3660;DHT22;1846;51.482;7.224;2023-04-01T08:16:02;10.30;99.90
3660;DHT22;1846;51.482;7.224;2023-04-01T08:18:38;10.20;99.90
3660;DHT22;1846;51.482;7.224;2023-04-01T08:21:13;10.40;99.90
3660;DHT22;1846;51.482;7.224;2023-04-01T08:23:44;10.30;99.90
3660;DHT22;1846;51.482;7.224;2023-04-01T08:26:16;10.30;99.90
3660;DHT22;1846;51.482;7.224;2023-04-01T08:28:51;10.40;99.90
3660;DHT22;1846;51.482;7.224;2023-04-01T08:31:22;10.40;99.90
3660;DHT22;1846;51.482;7.224;2023-04-01T08:33:54;10.30;99.90
3660;DHT22;1846;51.482;7.224;2023-04-01T08:36:24;10.30;99.90
3660;DHT22;1846;51.482;7.224;2023-04-01T08:38:55;10.40;99.90
3660;DHT22;1846;51.482;7.224;2023-04-01T08:41:38;10.30;99.90
3660;DHT22;1846;51.482;7.224;2023-04-01T08:44:30;10.40;99.90
3660;DHT22;1846;51.482;7.224;2023-04-01T08:47:37;10.30;99.90
3660;DHT22;1846;51.482;7.224;2023-04-01T08:53:38;10.40;99.90
3660;DHT22;1846;51.482;7.224;2023-04-01T08:56:17;10.40;99.90
3660;DHT22;1846;51.482;7.224;2023-04-01T08:59:09;10.40;99.90
3660;DHT22;1846;51.482;7.224;2023-04-01T09:01:56;10.40;99.90
3660;DHT22;1846;51.482;7.224;2023-04-01T09:04:41;10.40;99.90
3660;DHT22;1846;51.482;7.224;2023-04-01T09:07:27;10.40;99.90
3660;DHT22;1846;51.482;7.224;2023-04-01T09:10:09;10.50;99.90
3660;DHT22;1846;51.482;7.224;2023-04-01T09:12:51;10.40;99.90
3660;DHT22;1846;51.482;7.224;2023-04-01T09:19:02;10.30;99.90
3660;DHT22;1846;51.482;7.224;2023-04-01T09:21:56;10.40;99.90
3660;DHT22;1846;51.482;7.224;2023-04-01T09:24:40;10.40;99.90
3660;DHT22;1846;51.482;7.224;2023-04-01T09:27:15;10.50;99.90
3660;DHT22;1846;51.482;7.224;2023-04-01T09:30:27;10.40;99.90
3660;DHT22;1846;51.482;7.224;2023-04-01T09:33:21;10.40;99.90
3660;DHT22;1846;51.482;7.224;2023-04-01T09:36:04;10.40;99.90
3660;DHT22;1846;51.482;7.224;2023-04-01T09:38:42;10.40;99.90
3660;DHT22;1846;51.482;7.224;2023-04-01T09:41:20;10.50;99.90
3660;DHT22;1846;51.482;7.224;2023-04-01T09:44:01;10.40;99.90
3660;DHT22;1846;51.482;7.224;2023-04-01T09:46:43;10.40;99.90
3660;DHT22;1846;51.482;7.224;2023-04-01T09:52:19;10.50;99.90
3660;DHT22;1846;51.482;7.224;2023-04-01T09:55:05;10.60;99.90
3660;DHT22;1846;51.482;7.224;2023-04-01T09:58:04;10.60;99.90
3660;DHT22;1846;51.482;7.224;2023-04-01T10:00:55;10.60;99.90
3660;DHT22;1846;51.482;7.224;2023-04-01T10:04:03;10.60;99.90
3660;DHT22;1846;51.482;7.224;2023-04-01T10:07:07;10.70;99.90
3660;DHT22;1846;51.482;7.224;2023-04-01T10:10:14;10.70;99.90
3660;DHT22;1846;51.482;7.224;2023-04-01T10:18:46;10.80;99.90
3660;DHT22;1846;51.482;7.224;2023-04-01T10:25:14;10.80;99.90
3660;DHT22;1846;51.482;7.224;2023-04-01T10:28:01;10.80;99.90
3660;DHT22;1846;51.482;7.224;2023-04-01T10:30:52;10.70;99.90
3660;DHT22;1846;51.482;7.224;2023-04-01T10:33:59;10.60;99.90
3660;DHT22;1846;51.482;7.224;2023-04-01T10:36:47;10.80;99.90
3660;DHT22;1846;51.482;7.224;2023-04-01T10:45:52;11.00;99.90
3660;DHT22;1846;51.482;7.224;2023-04-01T10:48:49;11.00;99.90
3660;DHT22;1846;51.482;7.224;2023-04-01T10:54:40;10.90;99.90
3660;DHT22;1846;51.482;7.224;2023-04-01T10:57:29;11.00;99.90
3660;DHT22;1846;51.482;7.224;2023-04-01T11:00:30;10.90;99.90
3660;DHT22;1846;51.482;7.224;2023-04-01T11:06:29;10.80;99.90
3660;DHT22;1846;51.482;7.224;2023-04-01T11:09:29;10.90;99.90
3660;DHT22;1846;51.482;7.224;2023-04-01T11:15:32;11.00;99.90
3660;DHT22;1846;51.482;7.224;2023-04-01T11:18:43;10.80;99.90
3660;DHT22;1846;51.482;7.224;2023-04-01T11:27:30;10.70;99.90
3660;DHT22;1846;51.482;7.224;2023-04-01T11:30:20;10.70;99.90
3660;DHT22;1846;51.482;7.224;2023-04-01T11:32:54;10.80;99.90
3660;DHT22;1846;51.482;7.224;2023-04-01T11:35:38;10.80;99.90
3660;DHT22;1846;51.482;7.224;2023-04-01T11:38:19;10.80;99.90
3660;DHT22;1846;51.482;7.224;2023-04-01T11:40:56;10.90;99.90
3660;DHT22;1846;51.482;7.224;2023-04-01T11:43:31;11.00;99.90
3660;DHT22;1846;51.482;7.224;2023-04-01T11:46:05;10.90;99.90
3660;DHT22;1846;51.482;7.224;2023-04-01T11:51:54;10.90;99.90
3660;DHT22;1846;51.482;7.224;2023-04-01T11:54:51;11.00;99.90
3660;DHT22;1846;51.482;7.224;2023-04-01T11:57:43;11.00;99.90
3660;DHT22;1846;51.482;7.224;2023-04-01T12:00:25;11.00;99.90
3660;DHT22;1846;51.482;7.224;2023-04-01T12:03:13;11.00;99.90
3660;DHT22;1846;51.482;7.224;2023-04-01T12:05:47;11.00;99.90
3660;DHT22;1846;51.482;7.224;2023-04-01T12:08:24;11.00;99.90
3660;DHT22;1846;51.482;7.224;2023-04-01T12:11:00;11.10;99.90
3660;DHT22;1846;51.482;7.224;2023-04-01T12:13:38;11.10;99.90
3660;DHT22;1846;51.482;7.224;2023-04-01T12:16:19;11.10;99.90
3660;DHT22;1846;51.482;7.224;2023-04-01T12:18:51;11.20;99.90
3660;DHT22;1846;51.482;7.224;2023-04-01T12:21:25;11.10;99.90
3660;DHT22;1846;51.482;7.224;2023-04-01T12:24:25;11.10;99.90
3660;DHT22;1846;51.482;7.224;2023-04-01T12:27:25;11.00;99.90
3660;DHT22;1846;51.482;7.224;2023-04-01T12:30:10;11.00;99.90
3660;DHT22;1846;51.482;7.224;2023-04-01T12:32:45;11.10;99.90
3660;DHT22;1846;51.482;7.224;2023-04-01T12:35:22;11.00;99.90
3660;DHT22;1846;51.482;7.224;2023-04-01T12:38:04;11.00;99.90
3660;DHT22;1846;51.482;7.224;2023-04-01T12:40:49;11.10;99.90
3660;DHT22;1846;51.482;7.224;2023-04-01T12:46:38;11.00;99.90
3660;DHT22;1846;51.482;7.224;2023-04-01T12:49:32;11.00;99.90
3660;DHT22;1846;51.482;7.224;2023-04-01T12:52:09;11.10;99.90
3660;DHT22;1846;51.482;7.224;2023-04-01T12:54:58;11.10;99.90
3660;DHT22;1846;51.482;7.224;2023-04-01T12:57:50;11.10;99.90
3660;DHT22;1846;51.482;7.224;2023-04-01T13:00:39;11.10;99.90
3660;DHT22;1846;51.482;7.224;2023-04-01T13:03:20;11.30;99.90
3660;DHT22;1846;51.482;7.224;2023-04-01T13:06:18;11.40;99.90
3660;DHT22;1846;51.482;7.224;2023-04-01T13:08:53;11.40;99.90
3660;DHT22;1846;51.482;7.224;2023-04-01T13:11:35;11.30;99.90
3660;DHT22;1846;51.482;7.224;2023-04-01T13:14:26;11.40;99.90
3660;DHT22;1846;51.482;7.224;2023-04-01T13:17:00;11.20;99.90
3660;DHT22;1846;51.482;7.224;2023-04-01T13:19:38;11.20;99.90
3660;DHT22;1846;51.482;7.224;2023-04-01T13:22:11;11.20;99.90
3660;DHT22;1846;51.482;7.224;2023-04-01T13:24:46;11.20;99.90
3660;DHT22;1846;51.482;7.224;2023-04-01T13:27:20;11.10;99.90
3660;DHT22;1846;51.482;7.224;2023-04-01T13:30:00;11.10;99.90
3660;DHT22;1846;51.482;7.224;2023-04-01T13:32:34;10.90;99.90
3660;DHT22;1846;51.482;7.224;2023-04-01T13:35:17;10.90;99.90
3660;DHT22;1846;51.482;7.224;2023-04-01T13:37:54;10.90;99.90
3660;DHT22;1846;51.482;7.224;2023-04-01T13:40:36;11.00;99.90
3660;DHT22;1846;51.482;7.224;2023-04-01T13:43:14;10.90;99.90
3660;DHT22;1846;51.482;7.224;2023-04-01T13:45:55;10.90;99.90
3660;DHT22;1846;51.482;7.224;2023-04-01T13:48:36;11.00;99.90
3660;DHT22;1846;51.482;7.224;2023-04-01T13:51:22;11.00;99.90
3660;DHT22;1846;51.482;7.224;2023-04-01T13:54:18;11.00;99.90
3660;DHT22;1846;51.482;7.224;2023-04-01T13:56:59;11.00;99.90
3660;DHT22;1846;51.482;7.224;2023-04-01T13:59:40;11.00;99.90
3660;DHT22;1846;51.482;7.224;2023-04-01T14:02:29;11.10;99.90
3660;DHT22;1846;51.482;7.224;2023-04-01T14:05:20;11.20;99.90
3660;DHT22;1846;51.482;7.224;2023-04-01T14:08:03;11.10;99.90
3660;DHT22;1846;51.482;7.224;2023-04-01T14:10:35;11.10;99.90
3660;DHT22;1846;51.482;7.224;2023-04-01T14:13:09;11.10;99.90
3660;DHT22;1846;51.482;7.224;2023-04-01T14:15:56;11.10;99.90
3660;DHT22;1846;51.482;7.224;2023-04-01T14:18:37;11.10;99.90
3660;DHT22;1846;51.482;7.224;2023-04-01T14:21:17;11.10;99.90
3660;DHT22;1846;51.482;7.224;2023-04-01T14:24:04;11.10;99.90
3660;DHT22;1846;51.482;7.224;2023-04-01T14:27:09;11.10;99.90
3660;DHT22;1846;51.482;7.224;2023-04-01T14:29:48;11.10;99.90
3660;DHT22;1846;51.482;7.224;2023-04-01T14:32:32;11.00;99.90
3660;DHT22;1846;51.482;7.224;2023-04-01T14:35:30;11.10;99.90
3660;DHT22;1846;51.482;7.224;2023-04-01T14:38:26;11.10;99.90
3660;DHT22;1846;51.482;7.224;2023-04-01T14:40:56;11.00;99.90
3660;DHT22;1846;51.482;7.224;2023-04-01T14:43:46;11.20;99.90
3660;DHT22;1846;51.482;7.224;2023-04-01T14:46:32;11.00;99.90
3660;DHT22;1846;51.482;7.224;2023-04-01T14:49:04;11.10;99.90
3660;DHT22;1846;51.482;7.224;2023-04-01T14:51:41;11.00;99.90
3660;DHT22;1846;51.482;7.224;2023-04-01T14:54:14;11.10;99.90
3660;DHT22;1846;51.482;7.224;2023-04-01T14:56:49;11.00;99.90
3660;DHT22;1846;51.482;7.224;2023-04-01T14:59:26;11.00;99.90
3660;DHT22;1846;51.482;7.224;2023-04-01T15:02:00;11.00;99.90
3660;DHT22;1846;51.482;7.224;2023-04-01T15:04:42;11.10;99.90
3660;DHT22;1846;51.482;7.224;2023-04-01T15:07:35;11.20;99.90
3660;DHT22;1846;51.482;7.224;2023-04-01T15:10:12;11.00;99.90
3660;DHT22;1846;51.482;7.224;2023-04-01T15:12:54;10.90;99.90
3660;DHT22;1846;51.482;7.224;2023-04-01T15:15:35;11.00;99.90
3660;DHT22;1846;51.482;7.224;2023-04-01T15:18:08;11.10;99.90
3660;DHT22;1846;51.482;7.224;2023-04-01T15:21:02;11.10;99.90
3660;DHT22;1846;51.482;7.224;2023-04-01T15:23:47;11.10;99.90
3660;DHT22;1846;51.482;7.224;2023-04-01T15:26:25;11.10;99.90
3660;DHT22;1846;51.482;7.224;2023-04-01T15:29:20;11.00;99.90
3660;DHT22;1846;51.482;7.224;2023-04-01T15:31:53;11.00;99.90
3660;DHT22;1846;51.482;7.224;2023-04-01T15:34:32;11.00;99.90
3660;DHT22;1846;51.482;7.224;2023-04-01T15:37:04;11.00;99.90
3660;DHT22;1846;51.482;7.224;2023-04-01T15:39:54;11.00;99.90
3660;DHT22;1846;51.482;7.224;2023-04-01T15:42:35;11.10;99.90
3660;DHT22;1846;51.482;7.224;2023-04-01T15:45:17;11.10;99.90
3660;DHT22;1846;51.482;7.224;2023-04-01T15:47:46;11.10;99.90
3660;DHT22;1846;51.482;7.224;2023-04-01T15:50:48;11.10;99.90
3660;DHT22;1846;51.482;7.224;2023-04-01T15:53:36;11.20;99.90
3660;DHT22;1846;51.482;7.224;2023-04-01T15:56:26;11.10;99.90
3660;DHT22;1846;51.482;7.224;2023-04-01T15:59:02;11.20;99.90
3660;DHT22;1846;51.482;7.224;2023-04-01T16:01:39;11.10;99.90
3660;DHT22;1846;51.482;7.224;2023-04-01T16:04:22;11.10;99.90
3660;DHT22;1846;51.482;7.224;2023-04-01T16:07:09;11.10;99.90
3660;DHT22;1846;51.482;7.224;2023-04-01T16:09:56;11.00;99.90
3660;DHT22;1846;51.482;7.224;2023-04-01T16:12:39;11.10;99.90
3660;DHT22;1846;51.482;7.224;2023-04-01T16:15:16;11.20;99.90
3660;DHT22;1846;51.482;7.224;2023-04-01T16:17:58;11.10;99.90
3660;DHT22;1846;51.482;7.224;2023-04-01T16:20:43;11.10;99.90
3660;DHT22;1846;51.482;7.224;2023-04-01T16:23:17;11.10;99.90
3660;DHT22;1846;51.482;7.224;2023-04-01T16:25:51;11.10;99.90
3660;DHT22;1846;51.482;7.224;2023-04-01T16:28:24;11.00;99.90
3660;DHT22;1846;51.482;7.224;2023-04-01T16:30:58;11.10;99.90
3660;DHT22;1846;51.482;7.224;2023-04-01T16:33:35;11.10;99.90
3660;DHT22;1846;51.482;7.224;2023-04-01T16:36:10;11.10;99.90
3660;DHT22;1846;51.482;7.224;2023-04-01T16:38:46;11.00;99.90
3660;DHT22;1846;51.482;7.224;2023-04-01T16:41:17;11.10;99.90
3660;DHT22;1846;51.482;7.224;2023-04-01T16:43:49;11.10;99.90
3660;DHT22;1846;51.482;7.224;2023-04-01T16:46:28;11.10;99.90
3660;DHT22;1846;51.482;7.224;2023-04-01T16:49:00;11.00;99.90
3660;DHT22;1846;51.482;7.224;2023-04-01T16:51:41;11.00;99.90
3660;DHT22;1846;51.482;7.224;2023-04-01T16:54:16;11.00;99.90
3660;DHT22;1846;51.482;7.224;2023-04-01T16:56:47;10.90;99.90
3660;DHT22;1846;51.482;7.224;2023-04-01T16:59:25;10.90;99.90
3660;DHT22;1846;51.482;7.224;2023-04-01T17:01:57;11.00;99.90
3660;DHT22;1846;51.482;7.224;2023-04-01T17:04:34;11.00;99.90
3660;DHT22;1846;51.482;7.224;2023-04-01T17:07:20;11.00;99.90
3660;DHT22;1846;51.482;7.224;2023-04-01T17:10:22;11.00;99.90
3660;DHT22;1846;51.482;7.224;2023-04-01T17:13:05;10.90;99.90
3660;DHT22;1846;51.482;7.224;2023-04-01T17:15:45;10.90;99.90
3660;DHT22;1846;51.482;7.224;2023-04-01T17:18:16;10.90;99.90
3660;DHT22;1846;51.482;7.224;2023-04-01T17:20:52;10.90;99.90
3660;DHT22;1846;51.482;7.224;2023-04-01T17:23:25;10.90;99.90
3660;DHT22;1846;51.482;7.224;2023-04-01T17:26:06;10.90;99.90
3660;DHT22;1846;51.482;7.224;2023-04-01T17:29:12;10.90;99.90
3660;DHT22;1846;51.482;7.224;2023-04-01T17:31:49;10.90;99.90
3660;DHT22;1846;51.482;7.224;2023-04-01T17:34:37;10.90;99.90
3660;DHT22;1846;51.482;7.224;2023-04-01T17:37:28;10.80;99.90
3660;DHT22;1846;51.482;7.224;2023-04-01T17:40:12;10.80;99.90
3660;DHT22;1846;51.482;7.224;2023-04-01T17:42:46;10.80;99.90
3660;DHT22;1846;51.482;7.224;2023-04-01T17:45:21;10.90;99.90
3660;DHT22;1846;51.482;7.224;2023-04-01T17:48:00;10.80;99.90
3660;DHT22;1846;51.482;7.224;2023-04-01T17:50:47;10.80;99.90
3660;DHT22;1846;51.482;7.224;2023-04-01T17:53:28;10.80;99.90
3660;DHT22;1846;51.482;7.224;2023-04-01T17:56:24;10.80;99.90